W1TTX Weather Reports


Display with metric or nautical units.
time (UTC)temp
F
wind
direction
speed
MPH
gust
MPH
rain 1hr
in
rain 24hr
in
rain mn
in
humidity
%
barometer
mb
20210801041214 55 0 0.0 0.0 0.00 0.00 0.00 97 1007.9
20210801040313 54 0 0.0 0.0 0.00 0.00 0.00 97 1008.1
20210801035412 54 0 0.0 0.0 0.00 0.00 0.00 97 1007.9
20210801034513 54 0 0.0 0.0 0.00 0.00 0.00 97 1007.9
20210801033612 54 0 0.0 0.0 0.00 0.00 0.00 97 1007.9
20210801032712 54 0 0.0 0.0 0.00 0.00 0.00 97 1007.9
20210801031814 55 0 0.0 0.0 0.00 0.00 0.00 96 1007.9
20210801030913 55 0 0.0 2.0 0.00 0.00 0.00 94 1007.9
20210801030013 56 0 0.0 0.0 0.00 0.00 0.00 93 1008.1
20210801025112 56 0 0.0 0.0 0.00 0.00 0.00 91 1008.1
20210801024212 56 0 0.0 0.0 0.00 0.00 0.00 89 1008.1
20210801023313 57 0 0.0 0.0 0.00 0.00 0.00 87 1008.1
20210801022414 58 0 0.0 1.0 0.00 0.00 0.00 85 1008.1
20210801021514 58 0 0.0 0.0 0.00 0.00 0.00 84 1008.2
20210801020613 59 0 0.0 0.0 0.00 0.00 0.00 84 1008.2
20210801015712 58 0 0.0 2.0 0.00 0.00 0.00 84 1008.3
20210801014813 58 0 0.0 0.0 0.00 0.00 0.00 86 1008.2
20210801013913 58 0 0.0 0.0 0.00 0.00 0.00 86 1008.4
20210801013013 58 0 0.0 0.0 0.00 0.00 0.00 84 1008.3
20210801012113 59 0 0.0 0.0 0.00 0.00 0.00 84 1008.3
20210801011212 59 0 0.0 0.0 0.00 0.00 0.00 80 1008.2
20210801010314 60 0 0.0 0.0 0.00 0.00 0.00 80 1008.0
20210801005413 60 0 0.0 0.0 0.00 0.00 0.00 78 1007.8
20210801004517 60 0 0.0 0.0 0.00 0.00 0.00 78 1007.7
20210801003613 61 0 0.0 0.0 0.00 0.00 0.00 77 1007.6
20210801002713 61 0 0.0 0.0 0.00 0.00 0.00 74 1007.6
20210801001813 69 0 0.0 0.0 0.00 0.00 0.00 53 1007.5
20210801000912 69 0 0.0 0.0 0.00 0.00 0.00 53 1007.4
20210801000015 69 0 0.0 0.0 0.00 0.00 0.00 53 1007.4
20210731235116 69 0 0.0 0.0 0.00 0.00 0.00 53 1007.4
20210731234214 69 0 0.0 0.0 0.00 0.00 0.00 53 1007.2
20210731233316 69 0 0.0 0.0 0.00 0.00 0.00 53 1007.1
20210731232413 69 0 0.0 0.0 0.00 0.00 0.00 53 1007.1
20210731231514 69 0 0.0 0.0 0.00 0.00 0.00 53 1007.1
20210731230614 69 0 0.0 0.0 0.00 0.00 0.00 53 1007.2
20210731225714 69 0 0.0 0.0 0.00 0.00 0.00 53 1007.0
20210731224813 69 0 0.0 0.0 0.00 0.00 0.00 53 1007.2
20210731223913 69 0 0.0 0.0 0.00 0.00 0.00 53 1007.0
20210731223013 69 0 0.0 1.0 0.00 0.00 0.00 53 1007.1
20210731222115 71 0 0.0 1.0 0.00 0.00 0.00 52 1007.2
20210731221214 75 0 0.0 0.0 0.00 0.00 0.00 46 1007.2
20210731220313 75 0 0.0 1.0 0.00 0.01 0.00 44 1007.3
20210731215415 77 0 0.0 6.0 0.00 0.01 0.00 44 1007.2
20210731214515 77 0 0.0 1.0 0.00 0.01 0.00 43 1007.1
20210731213613 77 0 0.0 2.0 0.00 0.01 0.00 42 1007.1
20210731212713 76 0 0.0 6.0 0.00 0.01 0.00 44 1007.3
20210731211814 78 225 2.0 2.0 0.00 0.01 0.00 44 1007.3
20210731210914 74 0 0.0 0.0 0.00 0.01 0.00 49 1007.2
20210731210014 74 0 0.0 0.0 0.00 0.01 0.00 49 1007.3
20210731205114 74 0 0.0 0.0 0.00 0.01 0.00 49 1007.3
20210731204213 74 0 0.0 0.0 0.00 0.01 0.00 50 1007.3
20210731203313 74 0 0.0 2.0 0.00 0.01 0.00 50 1007.3
20210731202414 74 0 0.0 2.0 0.00 0.01 0.00 47 1007.4
20210731201514 74 0 0.0 1.0 0.00 0.02 0.00 47 1007.2
20210731200613 74 0 0.0 1.0 0.00 0.02 0.00 47 1007.0
20210731195713 75 0 0.0 2.0 0.00 0.02 0.00 49 1007.1
20210731194813 75 225 1.0 2.0 0.00 0.02 0.00 49 1007.0
20210731193914 75 0 0.0 3.0 0.00 0.02 0.00 49 1007.1
20210731193014 74 225 1.0 3.0 0.00 0.02 0.00 49 1007.1
20210731192113 74 0 0.0 0.0 0.00 0.02 0.00 49 1007.0
20210731191213 74 0 0.0 0.0 0.00 0.02 0.00 49 1007.1
20210731190320 76 0 0.0 0.0 0.00 0.02 0.00 43 1007.0
20210731185414 76 0 0.0 1.0 0.00 0.02 0.00 43 1007.0
20210731184514 78 0 0.0 1.0 0.00 0.02 0.00 41 1006.8
20210731183613 78 0 0.0 2.0 0.00 0.02 0.00 41 1006.9
20210731182713 74 0 0.0 3.0 0.00 0.02 0.00 46 1007.1
20210731181813 78 0 0.0 3.0 0.00 0.02 0.00 38 1007.0
20210731180913 78 255 2.0 3.0 0.00 0.02 0.00 42 1007.1
20210731180016 77 0 0.0 1.0 0.00 0.02 0.00 46 1007.2
20210731175114 76 0 0.0 1.0 0.00 0.02 0.00 45 1007.2
20210731174213 75 292 2.0 4.0 0.00 0.02 0.00 45 1007.0
20210731173314 75 292 2.0 4.0 0.00 0.02 0.00 45 1007.1
20210731172414 75 292 2.0 4.0 0.00 0.02 0.00 45 1007.2
20210731171514 75 292 2.0 4.0 0.00 0.02 0.00 45 1007.1
20210731170613 75 292 2.0 4.0 0.00 0.02 0.00 45 1007.1
20210731165713 75 292 2.0 4.0 0.00 0.02 0.00 45 1007.4
20210731164813 75 292 2.0 4.0 0.00 0.02 0.00 45 1007.4
20210731163913 71 0 0.0 2.0 0.00 0.02 0.00 52 1007.3
20210731163015 71 0 0.0 2.0 0.00 0.02 0.00 52 1007.4
20210731162113 71 0 0.0 2.0 0.00 0.02 0.00 52 1007.6
20210731161215 71 0 0.0 2.0 0.00 0.02 0.00 52 1007.6
20210731160313 71 0 0.0 2.0 0.00 0.02 0.00 52 1007.6
20210731155413 71 0 0.0 2.0 0.00 0.02 0.00 52 1007.7
20210731154514 71 0 0.0 2.0 0.00 0.02 0.00 52 1007.7
20210731153613 71 0 0.0 2.0 0.00 0.02 0.00 52 1007.7
20210731152713 71 0 0.0 2.0 0.00 0.02 0.00 52 1007.7
20210731151814 71 0 0.0 2.0 0.00 0.02 0.00 52 1007.6
20210731150916 71 0 0.0 2.0 0.00 0.02 0.00 52 1007.8
20210731150015 69 181 1.0 3.0 0.00 0.02 0.00 55 1007.8
20210731145113 69 181 1.0 3.0 0.00 0.02 0.00 55 1007.9
20210731144213 69 181 1.0 3.0 0.00 0.02 0.00 55 1008.0
20210731143313 69 181 1.0 3.0 0.00 0.02 0.00 55 1007.9
20210731142414 69 181 1.0 3.0 0.00 0.02 0.00 55 1007.9
20210731141514 69 181 1.0 3.0 0.00 0.02 0.00 55 1007.9
20210731140614 68 0 0.0 4.0 0.00 0.02 0.00 56 1007.9
20210731135713 66 0 0.0 0.0 0.00 0.02 0.00 62 1007.8
20210731134815 66 0 0.0 0.0 0.00 0.02 0.00 62 1007.7
20210731133914 66 0 0.0 0.0 0.00 0.02 0.00 62 1007.7
20210731133017 66 0 0.0 0.0 0.00 0.02 0.00 62 1007.7
20210731132116 66 0 0.0 0.0 0.00 0.02 0.00 62 1007.6
20210731131213 66 0 0.0 0.0 0.00 0.02 0.00 62 1007.6
20210731130314 66 0 0.0 0.0 0.00 0.02 0.00 65 1007.7
20210731125413 63 0 0.0 2.0 0.00 0.02 0.00 69 1007.8
20210731124515 59 0 0.0 4.0 0.00 0.02 0.00 74 1007.7
20210731123614 57 0 0.0 4.0 0.00 0.02 0.00 80 1007.6
20210731122714 56 0 0.0 1.0 0.00 0.02 0.00 81 1007.6
20210731121813 56 0 0.0 2.0 0.00 0.02 0.00 83 1007.5
20210731120913 55 0 0.0 0.0 0.00 0.02 0.00 84 1007.4
20210731120013 55 0 0.0 2.0 0.00 0.02 0.00 84 1007.4
20210731115113 55 0 0.0 2.0 0.00 0.02 0.00 86 1007.3
20210731114216 53 0 0.0 0.0 0.00 0.02 0.00 92 1007.3
20210731113313 53 0 0.0 0.0 0.00 0.02 0.00 92 1007.2
20210731112415 53 0 0.0 0.0 0.00 0.02 0.00 91 1007.2
20210731111514 53 0 0.0 0.0 0.00 0.02 0.00 91 1007.3
20210731110615 51 0 0.0 0.0 0.00 0.02 0.00 94 1007.4
20210731105715 51 0 0.0 0.0 0.00 0.08 0.00 94 1007.4
20210731104816 51 0 0.0 0.0 0.00 0.08 0.00 94 1007.2
20210731103913 51 0 0.0 0.0 0.00 0.08 0.00 94 1007.1
20210731103013 51 0 0.0 0.0 0.00 0.08 0.00 94 1007.1
20210731102113 51 0 0.0 0.0 0.00 0.08 0.00 94 1007.1
20210731101215 51 0 0.0 0.0 0.00 0.08 0.00 94 1007.1
20210731100313 51 0 0.0 0.0 0.00 0.08 0.00 94 1007.1
20210731095414 51 0 0.0 0.0 0.00 0.08 0.00 94 1007.1
20210731094514 51 0 0.0 0.0 0.00 0.08 0.00 94 1007.1
20210731093613 51 0 0.0 0.0 0.00 0.08 0.00 94 1006.9
20210731092715 51 0 0.0 0.0 0.00 0.08 0.00 94 1007.1
20210731091813 51 0 0.0 0.0 0.00 0.08 0.00 95 1006.9
20210731090915 51 0 0.0 0.0 0.00 0.08 0.00 97 1006.8
20210731090014 51 0 0.0 0.0 0.00 0.08 0.00 97 1006.9
20210731085114 51 0 0.0 0.0 0.00 0.08 0.00 97 1006.7
20210731084214 50 0 0.0 3.0 0.00 0.08 0.00 97 1006.5
20210731083314 51 0 0.0 3.0 0.00 0.08 0.00 97 1006.5
20210731082413 51 0 0.0 0.0 0.00 0.08 0.00 97 1006.5
20210731081514 50 0 0.0 0.0 0.00 0.08 0.00 96 1006.7
20210731080614 50 0 0.0 0.0 0.00 0.08 0.00 95 1006.8
20210731075714 50 0 0.0 0.0 0.00 0.08 0.00 95 1006.8
20210731074813 51 0 0.0 0.0 0.00 0.08 0.00 96 1006.7
20210731073916 50 0 0.0 0.0 0.00 0.08 0.00 96 1006.7
20210731073014 50 0 0.0 0.0 0.00 0.08 0.00 95 1006.7
20210731072114 50 0 0.0 0.0 0.00 0.08 0.00 94 1006.9
20210731071215 51 0 0.0 0.0 0.00 0.08 0.00 93 1006.7
20210731070314 51 0 0.0 0.0 0.00 0.08 0.00 93 1006.7
20210731065414 51 0 0.0 0.0 0.00 0.08 0.00 92 1006.8
20210731064515 51 0 0.0 0.0 0.00 0.08 0.00 91 1006.9
20210731063615 52 0 0.0 0.0 0.00 0.08 0.00 88 1006.8
20210731062714 52 0 0.0 0.0 0.00 0.08 0.00 86 1006.8
20210731061816 52 0 0.0 0.0 0.00 0.08 0.00 86 1006.8
20210731060914 52 0 0.0 0.0 0.00 0.08 0.00 87 1006.9
20210731060014 53 0 0.0 0.0 0.00 0.08 0.00 88 1006.8
20210731055114 53 0 0.0 0.0 0.00 0.08 0.00 87 1006.9
20210731054214 52 0 0.0 0.0 0.00 0.08 0.00 85 1007.0
20210731053314 52 0 0.0 0.0 0.00 0.08 0.00 84 1006.9
20210731052414 53 0 0.0 0.0 0.00 0.08 0.00 83 1007.0
20210731051514 53 0 0.0 0.0 0.00 0.08 0.00 82 1007.3
20210731050614 54 0 0.0 0.0 0.00 0.08 0.00 81 1007.2
20210731045714 55 0 0.0 0.0 0.00 0.08 0.00 79 1007.3
20210731044814 55 0 0.0 0.0 0.00 0.08 0.00 81 1007.1
20210731043917 55 0 0.0 0.0 0.00 0.08 0.00 80 1006.9
20210731043015 55 0 0.0 0.0 0.00 0.08 0.00 77 1006.7
20210731042114 55 0 0.0 0.0 0.00 0.08 0.00 75 1006.8